Terminal Aerodrome Forecast
Issued by NWS

Home | Current Version | Previous Version | Text Only | Print | Product List | Glossary On
Versions: 1 2 3 4 5 6 7 8 9 10 11 12 13 14
871
FTUS43 KICT 172333
TAFRSL
TAF
KRSL 172333Z 1800/1824 18007KT P6SM FEW100
     FM180700 18007KT P6SM VCTS BKN080CB
     FM181400 20012KT P6SM BKN100
     FM181900 35010KT P6SM SCT250=

USA.gov is the U.S. government's official web portal to all federal, state and local government web resources and services.